Time,TemperatureF,DewpointF,PressureIn,WindDirection,WindDirectionDegrees,WindSpeedMPH,WindSpeedGustMPH,Humidity,HourlyPrecipIn,Conditions,Clouds,dailyrainin,SoftwareType,DateUTC
2013-08-14 00:00:00,65.0,51.2,29.85,North,2,1.0,9.0,61,0.00,,---,0.10,VWS V14.01,2013-08-14 04:00:00,
2013-08-14 00:01:00,62.6,47.2,29.87,WSW,244,1.0,1.0,57,0.00,,---,0.00,VWS V14.01,2013-08-14 04:01:00,
2013-08-14 00:06:00,62.4,47.0,29.87,NW,307,2.0,8.0,57,0.00,,---,0.00,VWS V14.01,2013-08-14 04:06:00,
2013-08-14 00:11:00,62.3,46.9,29.87,NE,53,1.0,8.0,57,0.00,,---,0.00,VWS V14.01,2013-08-14 04:11:00,
2013-08-14 00:16:00,62.1,46.2,29.87,NNE,29,2.0,8.0,56,0.00,,---,0.00,VWS V14.01,2013-08-14 04:16:00,
2013-08-14 00:21:00,61.9,47.0,29.87,NNW,331,0.0,8.0,58,0.00,,---,0.00,VWS V14.01,2013-08-14 04:21:00,
2013-08-14 00:26:00,61.5,47.1,29.87,NNE,32,0.0,8.0,59,0.00,,---,0.00,VWS V14.01,2013-08-14 04:26:00,
2013-08-14 00:30:00,63.9,48.4,29.86,North,5,4.0,9.0,57,0.00,,---,0.10,VWS V14.01,2013-08-14 04:30:00,
2013-08-14 00:31:00,61.1,47.1,29.87,NE,44,0.0,1.0,60,0.00,,---,0.00,VWS V14.01,2013-08-14 04:31:00,
2013-08-14 00:36:00,60.8,46.8,29.87,NE,53,1.0,4.0,60,0.00,,---,0.00,VWS V14.01,2013-08-14 04:36:00,
2013-08-14 00:41:00,60.8,47.3,29.87,NW,309,0.0,4.0,61,0.00,,---,0.00,VWS V14.01,2013-08-14 04:41:00,
2013-08-14 00:46:00,60.7,47.2,29.87,NW,323,5.0,5.0,61,0.00,,---,0.00,VWS V14.01,2013-08-14 04:46:00,
2013-08-14 00:51:00,60.6,47.5,29.87,NNW,328,1.0,5.0,62,0.00,,---,0.00,VWS V14.01,2013-08-14 04:51:00,
2013-08-14 00:56:00,60.3,47.2,29.87,NNW,343,2.0,5.0,62,0.00,,---,0.00,VWS V14.01,2013-08-14 04:56:00,
2013-08-14 01:00:00,62.6,47.2,29.87,NW,322,1.0,11.0,57,0.00,,---,0.00,VWS V14.01,2013-08-14 05:00:00,
2013-08-14 01:01:00,60.1,47.5,29.88,NW,314,0.0,0.0,63,0.00,,---,0.00,VWS V14.01,2013-08-14 05:01:00,
2013-08-14 01:06:00,59.7,47.5,29.88,WSW,247,0.0,1.0,64,0.00,,---,0.00,VWS V14.01,2013-08-14 05:06:00,
2013-08-14 01:11:00,59.5,47.7,29.88,SSE,147,0.0,1.0,65,0.00,,---,0.00,VWS V14.01,2013-08-14 05:11:00,
2013-08-14 01:16:00,59.5,47.3,29.88,NW,324,2.0,3.0,64,0.00,,---,0.00,VWS V14.01,2013-08-14 05:16:00,
2013-08-14 01:21:00,59.7,47.1,29.88,SSW,203,0.0,5.0,63,0.00,,---,0.00,VWS V14.01,2013-08-14 05:21:00,
2013-08-14 01:26:00,59.5,47.3,29.88,North,354,0.0,5.0,64,0.00,,---,0.00,VWS V14.01,2013-08-14 05:26:00,
2013-08-14 01:30:00,61.2,47.2,29.87,NE,43,0.0,8.0,60,0.00,,---,0.00,VWS V14.01,2013-08-14 05:30:00,
2013-08-14 01:31:00,59.2,47.5,29.88,NNW,342,0.0,2.0,65,0.00,,---,0.00,VWS V14.01,2013-08-14 05:31:00,
2013-08-14 01:36:00,59.2,47.0,29.88,WNW,300,2.0,2.0,64,0.00,,---,0.00,VWS V14.01,2013-08-14 05:36:00,
2013-08-14 01:41:00,59.1,47.0,29.88,SW,229,0.0,6.0,64,0.00,,---,0.00,VWS V14.01,2013-08-14 05:41:00,
2013-08-14 01:46:00,59.2,46.6,29.88,NW,319,0.0,6.0,63,0.00,,---,0.00,VWS V14.01,2013-08-14 05:46:00,
2013-08-14 01:51:00,59.1,47.0,29.89,NE,34,0.0,6.0,64,0.00,,---,0.00,VWS V14.01,2013-08-14 05:51:00,
2013-08-14 01:56:00,59.3,46.3,29.89,SSW,200,0.0,6.0,62,0.00,,---,0.00,VWS V14.01,2013-08-14 05:56:00,
2013-08-14 02:00:00,60.1,47.5,29.88,NW,314,0.0,5.0,63,0.00,,---,0.00,VWS V14.01,2013-08-14 06:00:00,
2013-08-14 02:01:00,59.4,46.0,29.89,NNW,347,1.0,4.0,61,0.00,,---,0.00,VWS V14.01,2013-08-14 06:01:00,
2013-08-14 02:06:00,59.3,45.9,29.89,NNE,28,0.0,4.0,61,0.00,,---,0.00,VWS V14.01,2013-08-14 06:06:00,
2013-08-14 02:11:00,59.1,46.1,29.89,NW,316,0.0,4.0,62,0.00,,---,0.00,VWS V14.01,2013-08-14 06:11:00,
2013-08-14 02:16:00,58.9,45.5,29.89,SSW,195,0.0,4.0,61,0.00,,---,0.00,VWS V14.01,2013-08-14 06:16:00,
2013-08-14 02:21:00,58.8,45.8,29.89,NW,307,0.0,4.0,62,0.00,,---,0.00,VWS V14.01,2013-08-14 06:21:00,
2013-08-14 02:26:00,58.6,45.6,29.89,SW,232,0.0,4.0,62,0.00,,---,0.00,VWS V14.01,2013-08-14 06:26:00,
2013-08-14 02:30:00,59.3,47.1,29.88,NNW,340,0.0,5.0,64,0.00,,---,0.00,VWS V14.01,2013-08-14 06:30:00,
2013-08-14 02:31:00,58.4,46.3,29.89,SW,232,0.0,0.0,64,0.00,,---,0.00,VWS V14.01,2013-08-14 06:31:00,
2013-08-14 02:36:00,58.5,46.4,29.89,SE,138,0.0,1.0,64,0.00,,---,0.00,VWS V14.01,2013-08-14 06:36:00,
2013-08-14 02:41:00,58.5,46.0,29.89,SE,128,0.0,1.0,63,0.00,,---,0.00,VWS V14.01,2013-08-14 06:41:00,
2013-08-14 02:46:00,58.6,46.5,29.89,SW,231,0.0,1.0,64,0.00,,---,0.00,VWS V14.01,2013-08-14 06:46:00,
2013-08-14 02:51:00,58.6,46.5,29.89,SW,231,0.0,1.0,64,0.00,,---,0.00,VWS V14.01,2013-08-14 06:51:00,
2013-08-14 02:56:00,58.5,46.4,29.88,SW,221,0.0,1.0,64,0.00,,---,0.00,VWS V14.01,2013-08-14 06:56:00,
2013-08-14 03:00:00,59.3,45.9,29.89,NW,306,2.0,6.0,61,0.00,,---,0.00,VWS V14.01,2013-08-14 07:00:00,
2013-08-14 03:01:00,58.3,46.6,29.89,WNW,288,1.0,1.0,65,0.00,,---,0.00,VWS V14.01,2013-08-14 07:01:00,
2013-08-14 03:06:00,58.0,46.7,29.88,SW,235,0.0,2.0,66,0.00,,---,0.00,VWS V14.01,2013-08-14 07:06:00,
2013-08-14 03:11:00,57.6,46.7,29.88,WSW,243,0.0,2.0,67,0.00,,---,0.00,VWS V14.01,2013-08-14 07:11:00,
2013-08-14 03:16:00,57.2,46.4,29.88,SW,220,0.0,3.0,67,0.00,,---,0.00,VWS V14.01,2013-08-14 07:16:00,
2013-08-14 03:21:00,57.0,46.2,29.88,NE,38,1.0,5.0,67,0.00,,---,0.00,VWS V14.01,2013-08-14 07:21:00,
2013-08-14 03:26:00,56.9,46.5,29.88,SSW,203,0.0,5.0,68,0.00,,---,0.00,VWS V14.01,2013-08-14 07:26:00,
2013-08-14 03:30:00,58.5,46.0,29.89,SW,232,0.0,4.0,63,0.00,,---,0.00,VWS V14.01,2013-08-14 07:30:00,
2013-08-14 03:31:00,56.5,46.5,29.89,NW,314,0.0,3.0,69,0.00,,---,0.00,VWS V14.01,2013-08-14 07:31:00,
2013-08-14 03:36:00,56.2,46.2,29.89,West,260,0.0,3.0,69,0.00,,---,0.00,VWS V14.01,2013-08-14 07:36:00,
2013-08-14 03:41:00,56.0,46.0,29.89,SW,226,0.0,3.0,69,0.00,,---,0.00,VWS V14.01,2013-08-14 07:41:00,
2013-08-14 03:46:00,56.0,46.0,29.89,SW,234,0.0,3.0,69,0.00,,---,0.00,VWS V14.01,2013-08-14 07:46:00,
2013-08-14 03:51:00,55.8,45.8,29.89,SW,226,1.0,3.0,69,0.00,,---,0.00,VWS V14.01,2013-08-14 07:51:00,
2013-08-14 03:56:00,55.7,45.7,29.89,NNE,18,0.0,3.0,69,0.00,,---,0.00,VWS V14.01,2013-08-14 07:56:00,
2013-08-14 04:00:00,58.3,46.6,29.89,SSW,212,1.0,1.0,65,0.00,,---,0.00,VWS V14.01,2013-08-14 08:00:00,
2013-08-14 04:01:00,55.7,45.7,29.88,SW,226,0.0,0.0,69,0.00,,---,0.00,VWS V14.01,2013-08-14 08:01:00,
2013-08-14 04:06:00,55.7,45.7,29.88,NNW,340,0.0,2.0,69,0.00,,---,0.00,VWS V14.01,2013-08-14 08:06:00,
2013-08-14 04:11:00,55.4,45.8,29.89,NNW,333,0.0,2.0,70,0.00,,---,0.00,VWS V14.01,2013-08-14 08:11:00,
2013-08-14 04:16:00,55.0,45.8,29.89,SW,234,0.0,2.0,71,0.00,,---,0.00,VWS V14.01,2013-08-14 08:16:00,
2013-08-14 04:21:00,54.7,45.5,29.89,SW,235,0.0,2.0,71,0.00,,---,0.00,VWS V14.01,2013-08-14 08:21:00,
2013-08-14 04:26:00,54.5,45.3,29.89,NE,50,0.0,2.0,71,0.00,,---,0.00,VWS V14.01,2013-08-14 08:26:00,
2013-08-14 04:30:00,56.7,46.7,29.89,ENE,72,1.0,5.0,69,0.00,,---,0.00,VWS V14.01,2013-08-14 08:30:00,
2013-08-14 04:31:00,54.5,45.3,29.89,West,268,1.0,1.0,71,0.00,,---,0.00,VWS V14.01,2013-08-14 08:31:00,
2013-08-14 04:36:00,54.6,45.4,29.89,WSW,244,0.0,1.0,71,0.00,,---,0.00,VWS V14.01,2013-08-14 08:36:00,
2013-08-14 04:41:00,54.4,45.2,29.89,SW,224,0.0,3.0,71,0.00,,---,0.00,VWS V14.01,2013-08-14 08:41:00,
2013-08-14 04:46:00,54.5,44.9,29.89,NW,309,0.0,3.0,70,0.00,,---,0.00,VWS V14.01,2013-08-14 08:46:00,
2013-08-14 04:51:00,54.4,44.8,29.89,South,172,0.0,3.0,70,0.00,,---,0.00,VWS V14.01,2013-08-14 08:51:00,
2013-08-14 04:56:00,54.3,45.1,29.89,SSW,212,0.0,3.0,71,0.00,,---,0.00,VWS V14.01,2013-08-14 08:56:00,
2013-08-14 05:00:00,55.7,45.7,29.88,SW,226,0.0,3.0,69,0.00,,---,0.00,VWS V14.01,2013-08-14 09:00:00,
2013-08-14 05:01:00,54.0,45.2,29.89,SSW,212,0.0,0.0,72,0.00,,---,0.00,VWS V14.01,2013-08-14 09:01:00,
2013-08-14 05:06:00,53.8,45.4,29.89,WSW,241,0.0,2.0,73,0.00,,---,0.00,VWS V14.01,2013-08-14 09:06:00,
2013-08-14 05:11:00,53.5,45.1,29.89,SW,233,1.0,2.0,73,0.00,,---,0.00,VWS V14.01,2013-08-14 09:11:00,
2013-08-14 05:16:00,53.4,45.3,29.89,SW,215,0.0,2.0,74,0.00,,---,0.00,VWS V14.01,2013-08-14 09:16:00,
2013-08-14 05:21:00,53.2,45.5,29.89,North,2,0.0,2.0,75,0.00,,---,0.00,VWS V14.01,2013-08-14 09:21:00,
2013-08-14 05:26:00,53.0,45.7,29.89,NW,316,0.0,2.0,76,0.00,,---,0.00,VWS V14.01,2013-08-14 09:26:00,
2013-08-14 05:30:00,54.5,45.3,29.89,SW,229,0.0,2.0,71,0.00,,---,0.00,VWS V14.01,2013-08-14 09:30:00,
2013-08-14 05:31:00,52.8,45.5,29.89,North,8,0.0,0.0,76,0.00,,---,0.00,VWS V14.01,2013-08-14 09:31:00,
2013-08-14 05:36:00,53.1,45.8,29.89,SSW,192,0.0,4.0,76,0.00,,---,0.00,VWS V14.01,2013-08-14 09:36:00,
2013-08-14 05:41:00,53.4,45.7,29.89,NE,56,0.0,4.0,75,0.00,,---,0.00,VWS V14.01,2013-08-14 09:41:00,
2013-08-14 05:46:00,53.5,45.4,29.89,SW,216,0.0,4.0,74,0.00,,---,0.00,VWS V14.01,2013-08-14 09:46:00,
2013-08-14 05:51:00,53.8,45.7,29.89,SSE,148,0.0,5.0,74,0.00,,---,0.00,VWS V14.01,2013-08-14 09:51:00,
2013-08-14 05:56:00,53.8,45.7,29.89,SW,221,0.0,5.0,74,0.00,,---,0.00,VWS V14.01,2013-08-14 09:56:00,
2013-08-14 06:00:00,54.0,45.2,29.89,SSW,212,0.0,3.0,72,0.00,,---,0.00,VWS V14.01,2013-08-14 10:00:00,
2013-08-14 06:01:00,53.8,46.1,29.89,East,94,0.0,1.0,75,0.00,,---,0.00,VWS V14.01,2013-08-14 10:01:00,
2013-08-14 06:06:00,53.8,46.1,29.90,NNW,340,0.0,5.0,75,0.00,,---,0.00,VWS V14.01,2013-08-14 10:06:00,
2013-08-14 06:11:00,53.8,46.1,29.89,NNW,333,0.0,5.0,75,0.00,,---,0.00,VWS V14.01,2013-08-14 10:11:00,
2013-08-14 06:16:00,53.7,46.0,29.89,SW,214,0.0,5.0,75,0.00,,---,0.00,VWS V14.01,2013-08-14 10:16:00,
2013-08-14 06:21:00,53.5,46.1,29.89,WSW,252,0.0,5.0,76,0.00,,---,0.00,VWS V14.01,2013-08-14 10:21:00,
2013-08-14 06:26:00,53.5,46.1,29.90,SW,227,0.0,5.0,76,0.00,,---,0.00,VWS V14.01,2013-08-14 10:26:00,
2013-08-14 06:30:00,52.9,45.5,29.89,North,8,0.0,2.0,76,0.00,,---,0.00,VWS V14.01,2013-08-14 10:30:00,
2013-08-14 06:31:00,53.5,46.1,29.90,SW,227,0.0,1.0,76,0.00,,---,0.00,VWS V14.01,2013-08-14 10:31:00,
2013-08-14 06:36:00,53.6,46.2,29.90,West,269,0.0,3.0,76,0.00,,---,0.00,VWS V14.01,2013-08-14 10:36:00,
2013-08-14 06:41:00,53.7,46.3,29.90,SW,236,0.0,4.0,76,0.00,,---,0.00,VWS V14.01,2013-08-14 10:41:00,
2013-08-14 06:46:00,53.7,46.7,29.91,SW,229,0.0,4.0,77,0.00,,---,0.00,VWS V14.01,2013-08-14 10:46:00,
2013-08-14 06:51:00,53.7,46.7,29.91,SW,229,0.0,4.0,77,0.00,,---,0.00,VWS V14.01,2013-08-14 10:51:00,
2013-08-14 06:56:00,53.7,46.7,29.91,ESE,120,0.0,4.0,77,0.00,,---,0.00,VWS V14.01,2013-08-14 10:56:00,
2013-08-14 07:00:00,53.8,46.1,29.89,NW,314,0.0,5.0,75,0.00,,---,0.00,VWS V14.01,2013-08-14 11:00:00,
2013-08-14 07:01:00,53.8,46.8,29.91,SSW,206,0.0,1.0,77,0.00,,---,0.00,VWS V14.01,2013-08-14 11:01:00,
2013-08-14 07:06:00,54.1,46.7,29.91,East,92,0.0,2.0,76,0.00,,---,0.00,VWS V14.01,2013-08-14 11:06:00,
2013-08-14 07:11:00,54.2,47.2,29.91,SSW,213,0.0,2.0,77,0.00,,---,0.00,VWS V14.01,2013-08-14 11:11:00,
2013-08-14 07:16:00,54.5,47.1,29.91,SW,229,0.0,3.0,76,0.00,,---,0.00,VWS V14.01,2013-08-14 11:16:00,
2013-08-14 07:21:00,54.6,47.2,29.91,SW,221,0.0,3.0,76,0.00,,---,0.00,VWS V14.01,2013-08-14 11:21:00,
2013-08-14 07:26:00,54.7,47.3,29.91,SW,231,0.0,3.0,76,0.00,,---,0.00,VWS V14.01,2013-08-14 11:26:00,
2013-08-14 07:30:00,53.5,46.1,29.90,SW,234,0.0,5.0,76,0.00,,---,0.00,VWS V14.01,2013-08-14 11:30:00,
2013-08-14 07:31:00,54.8,47.0,29.91,NNW,337,1.0,4.0,75,0.00,,---,0.00,VWS V14.01,2013-08-14 11:31:00,
2013-08-14 07:36:00,55.1,47.0,29.91,NW,316,0.0,4.0,74,0.00,,---,0.00,VWS V14.01,2013-08-14 11:36:00,
2013-08-14 07:41:00,55.6,47.5,29.91,North,8,0.0,4.0,74,0.00,,---,0.00,VWS V14.01,2013-08-14 11:41:00,
2013-08-14 07:46:00,55.9,47.4,29.92,NNW,338,0.0,4.0,73,0.00,,---,0.00,VWS V14.01,2013-08-14 11:46:00,
2013-08-14 07:51:00,56.3,47.8,29.92,West,262,0.0,4.0,73,0.00,,---,0.00,VWS V14.01,2013-08-14 11:51:00,
2013-08-14 07:56:00,57.1,48.2,29.92,SSE,164,0.0,4.0,72,0.00,,---,0.00,VWS V14.01,2013-08-14 11:56:00,
2013-08-14 08:00:00,53.7,46.7,29.91,WSW,251,0.0,4.0,77,0.00,,---,0.00,VWS V14.01,2013-08-14 12:00:00,
2013-08-14 08:01:00,57.6,47.9,29.92,SW,217,2.0,2.0,70,0.00,,---,0.00,VWS V14.01,2013-08-14 12:01:00,
2013-08-14 08:06:00,57.8,47.7,29.92,SW,230,0.0,8.0,69,0.00,,---,0.00,VWS V14.01,2013-08-14 12:06:00,
2013-08-14 08:11:00,58.5,48.4,29.92,SW,230,0.0,8.0,69,0.00,,---,0.00,VWS V14.01,2013-08-14 12:11:00,
2013-08-14 08:16:00,59.1,48.6,29.93,SSW,208,1.0,8.0,68,0.00,,---,0.00,VWS V14.01,2013-08-14 12:16:00,
2013-08-14 08:21:00,59.6,48.6,29.93,NNW,348,1.0,8.0,67,0.00,,---,0.00,VWS V14.01,2013-08-14 12:21:00,
2013-08-14 08:26:00,60.1,48.7,29.93,North,359,0.0,8.0,66,0.00,,---,0.00,VWS V14.01,2013-08-14 12:26:00,
2013-08-14 08:30:00,54.8,47.0,29.91,South,173,1.0,3.0,75,0.00,,---,0.00,VWS V14.01,2013-08-14 12:30:00,
2013-08-14 08:31:00,60.6,48.8,29.93,North,360,1.0,2.0,65,0.00,,---,0.00,VWS V14.01,2013-08-14 12:31:00,
2013-08-14 08:36:00,60.8,48.6,29.93,WNW,282,0.0,6.0,64,0.00,,---,0.00,VWS V14.01,2013-08-14 12:36:00,
2013-08-14 08:41:00,61.2,48.9,29.93,SSE,164,1.0,6.0,64,0.00,,---,0.00,VWS V14.01,2013-08-14 12:41:00,
2013-08-14 08:46:00,61.2,49.3,29.94,NW,326,5.0,6.0,65,0.00,,---,0.00,VWS V14.01,2013-08-14 12:46:00,
2013-08-14 08:51:00,61.5,49.2,29.93,WSW,240,2.0,6.0,64,0.00,,---,0.00,VWS V14.01,2013-08-14 12:51:00,
2013-08-14 08:56:00,62.0,49.3,29.94,NW,313,2.0,6.0,63,0.00,,---,0.00,VWS V14.01,2013-08-14 12:56:00,
2013-08-14 09:00:00,57.5,47.8,29.92,NNW,331,2.0,4.0,70,0.00,,---,0.00,VWS V14.01,2013-08-14 13:00:00,
2013-08-14 09:01:00,62.3,49.6,29.94,East,86,0.0,1.0,63,0.00,,---,0.00,VWS V14.01,2013-08-14 13:01:00,
2013-08-14 09:06:00,62.7,49.9,29.94,NNE,18,1.0,6.0,63,0.00,,---,0.00,VWS V14.01,2013-08-14 13:06:00,
2013-08-14 09:11:00,62.8,50.0,29.94,NE,34,2.0,7.0,63,0.00,,---,0.00,VWS V14.01,2013-08-14 13:11:00,
2013-08-14 09:16:00,63.0,50.2,29.94,West,260,2.0,7.0,63,0.00,,---,0.00,VWS V14.01,2013-08-14 13:16:00,
2013-08-14 09:21:00,63.1,49.9,29.94,WSW,238,1.0,8.0,62,0.00,,---,0.00,VWS V14.01,2013-08-14 13:21:00,
2013-08-14 09:26:00,63.3,50.5,29.94,WSW,240,0.0,8.0,63,0.00,,---,0.00,VWS V14.01,2013-08-14 13:26:00,
2013-08-14 09:30:00,60.5,49.1,29.93,SW,223,0.0,8.0,66,0.00,,---,0.00,VWS V14.01,2013-08-14 13:30:00,
2013-08-14 09:31:00,63.4,50.2,29.94,WNW,303,0.0,5.0,62,0.00,,---,0.00,VWS V14.01,2013-08-14 13:31:00,
2013-08-14 09:36:00,63.8,51.0,29.94,NNW,346,4.0,5.0,63,0.00,,---,0.00,VWS V14.01,2013-08-14 13:36:00,
2013-08-14 09:41:00,64.2,50.9,29.94,SW,221,1.0,7.0,62,0.00,,---,0.00,VWS V14.01,2013-08-14 13:41:00,
2013-08-14 09:46:00,64.6,50.4,29.94,North,11,3.0,8.0,60,0.00,,---,0.00,VWS V14.01,2013-08-14 13:46:00,
2013-08-14 09:51:00,63.8,50.1,29.94,NW,304,1.0,8.0,61,0.00,,---,0.00,VWS V14.01,2013-08-14 13:51:00,
2013-08-14 09:56:00,64.3,51.0,29.94,NNE,27,0.0,8.0,62,0.00,,---,0.00,VWS V14.01,2013-08-14 13:56:00,
2013-08-14 10:00:00,62.2,49.5,29.94,NW,318,1.0,6.0,63,0.00,,---,0.00,VWS V14.01,2013-08-14 14:00:00,
2013-08-14 10:01:00,64.9,51.2,29.94,NW,309,2.0,3.0,61,0.00,,---,0.00,VWS V14.01,2013-08-14 14:01:00,
2013-08-14 10:06:00,65.2,51.0,29.95,North,357,2.0,5.0,60,0.00,,---,0.00,VWS V14.01,2013-08-14 14:06:00,
2013-08-14 10:11:00,65.3,50.6,29.95,NNW,333,2.0,9.0,59,0.00,,---,0.00,VWS V14.01,2013-08-14 14:11:00,
2013-08-14 10:16:00,64.9,50.2,29.95,NE,51,1.0,9.0,59,0.00,,---,0.00,VWS V14.01,2013-08-14 14:16:00,
2013-08-14 10:21:00,65.5,49.9,29.96,NE,43,2.0,9.0,57,0.00,,---,0.00,VWS V14.01,2013-08-14 14:21:00,
2013-08-14 10:26:00,65.2,51.0,29.96,West,272,2.0,9.0,60,0.00,,---,0.00,VWS V14.01,2013-08-14 14:26:00,
2013-08-14 10:30:00,63.4,50.2,29.94,SSW,198,2.0,8.0,62,0.00,,---,0.00,VWS V14.01,2013-08-14 14:30:00,
2013-08-14 10:31:00,64.6,50.4,29.96,ENE,75,1.0,5.0,60,0.00,,---,0.00,VWS V14.01,2013-08-14 14:31:00,
2013-08-14 10:36:00,64.3,50.6,29.96,ENE,73,1.0,5.0,61,0.00,,---,0.00,VWS V14.01,2013-08-14 14:36:00,
2013-08-14 10:41:00,64.2,50.5,29.97,NNE,16,0.0,7.0,61,0.00,,---,0.00,VWS V14.01,2013-08-14 14:41:00,
2013-08-14 10:46:00,64.5,50.8,29.96,ENE,58,5.0,9.0,61,0.00,,---,0.00,VWS V14.01,2013-08-14 14:46:00,
2013-08-14 10:51:00,64.8,50.2,29.97,North,354,3.0,11.0,59,0.00,,---,0.00,VWS V14.01,2013-08-14 14:51:00,
2013-08-14 10:56:00,64.8,51.0,29.97,WSW,238,1.0,11.0,61,0.00,,---,0.00,VWS V14.01,2013-08-14 14:56:00,
2013-08-14 11:00:00,64.7,51.0,29.94,SW,222,1.0,8.0,61,0.00,,---,0.00,VWS V14.01,2013-08-14 15:00:00,
2013-08-14 11:01:00,65.4,51.6,29.97,NW,315,2.0,3.0,61,0.00,,---,0.00,VWS V14.01,2013-08-14 15:01:00,
2013-08-14 11:06:00,66.3,51.6,29.97,SW,214,0.0,3.0,59,0.00,,---,0.00,VWS V14.01,2013-08-14 15:06:00,
2013-08-14 11:11:00,66.8,51.6,29.97,NW,317,4.0,8.0,58,0.00,,---,0.00,VWS V14.01,2013-08-14 15:11:00,
2013-08-14 11:16:00,67.0,51.3,29.97,NNW,330,1.0,8.0,57,0.00,,---,0.00,VWS V14.01,2013-08-14 15:16:00,
2013-08-14 11:21:00,67.3,51.1,29.96,NNE,31,6.0,11.0,56,0.00,,---,0.00,VWS V14.01,2013-08-14 15:21:00,
2013-08-14 11:26:00,67.5,51.3,29.96,ENE,60,2.0,11.0,56,0.00,,---,0.00,VWS V14.01,2013-08-14 15:26:00,
2013-08-14 11:30:00,64.7,50.5,29.96,NNW,348,3.0,9.0,60,0.00,,---,0.00,VWS V14.01,2013-08-14 15:30:00,
2013-08-14 11:31:00,67.5,52.7,29.96,SE,133,0.0,1.0,59,0.00,,---,0.00,VWS V14.01,2013-08-14 15:31:00,
2013-08-14 11:36:00,68.6,52.8,29.96,SSW,209,2.0,4.0,57,0.00,,---,0.00,VWS V14.01,2013-08-14 15:36:00,
2013-08-14 11:41:00,68.3,51.0,29.97,ENE,69,2.0,6.0,54,0.00,,---,0.00,VWS V14.01,2013-08-14 15:41:00,
2013-08-14 11:46:00,68.0,51.2,29.97,NNE,20,3.0,6.0,55,0.00,,---,0.00,VWS V14.01,2013-08-14 15:46:00,
2013-08-14 11:51:00,67.6,51.4,29.97,East,84,2.0,6.0,56,0.00,,---,0.00,VWS V14.01,2013-08-14 15:51:00,
2013-08-14 11:56:00,67.4,50.7,29.97,East,85,6.0,7.0,55,0.00,,---,0.00,VWS V14.01,2013-08-14 15:56:00,
2013-08-14 12:00:00,65.2,51.9,29.97,SSW,203,0.0,11.0,62,0.00,,---,0.00,VWS V14.01,2013-08-14 16:00:00,
2013-08-14 12:01:00,67.7,52.9,29.97,NE,55,1.0,1.0,59,0.00,,---,0.00,VWS V14.01,2013-08-14 16:01:00,
2013-08-14 12:06:00,68.3,51.5,29.97,North,7,0.0,3.0,55,0.00,,---,0.00,VWS V14.01,2013-08-14 16:06:00,
2013-08-14 12:11:00,67.9,51.2,29.97,East,81,0.0,4.0,55,0.00,,---,0.00,VWS V14.01,2013-08-14 16:11:00,
2013-08-14 12:16:00,67.7,51.0,29.97,NNW,328,1.0,8.0,55,0.00,,---,0.00,VWS V14.01,2013-08-14 16:16:00,
2013-08-14 12:21:00,67.7,50.0,29.97,ESE,121,2.0,14.0,53,0.00,,---,0.00,VWS V14.01,2013-08-14 16:21:00,
2013-08-14 12:26:00,68.1,50.8,29.98,NW,309,5.0,14.0,54,0.00,,---,0.00,VWS V14.01,2013-08-14 16:26:00,
2013-08-14 12:30:00,67.4,52.6,29.96,SSW,212,1.0,11.0,59,0.00,,---,0.00,VWS V14.01,2013-08-14 16:30:00,
2013-08-14 12:31:00,67.9,50.2,29.98,North,1,4.0,8.0,53,0.00,,---,0.00,VWS V14.01,2013-08-14 16:31:00,
2013-08-14 12:36:00,67.7,49.5,29.98,WNW,285,2.0,8.0,52,0.00,,---,0.00,VWS V14.01,2013-08-14 16:36:00,
2013-08-14 12:41:00,67.3,50.6,29.98,WSW,250,0.0,10.0,55,0.00,,---,0.00,VWS V14.01,2013-08-14 16:41:00,
2013-08-14 12:46:00,67.3,49.1,29.98,NNW,335,3.0,10.0,52,0.00,,---,0.00,VWS V14.01,2013-08-14 16:46:00,
2013-08-14 12:52:00,68.0,51.2,29.99,West,281,1.0,10.0,55,0.00,,---,0.00,VWS V14.01,2013-08-14 16:52:00,
2013-08-14 12:57:00,68.5,50.2,29.98,South,185,1.0,10.0,52,0.00,,---,0.00,VWS V14.01,2013-08-14 16:57:00,
2013-08-14 13:00:00,67.6,51.8,29.97,SW,228,0.0,7.0,57,0.00,,---,0.00,VWS V14.01,2013-08-14 17:00:00,
2013-08-14 13:02:00,68.2,50.9,29.99,NE,53,0.0,6.0,54,0.00,,---,0.00,VWS V14.01,2013-08-14 17:02:00,
2013-08-14 13:07:00,67.3,49.6,29.99,North,352,3.0,10.0,53,0.00,,---,0.00,VWS V14.01,2013-08-14 17:07:00,
2013-08-14 13:12:00,66.9,51.2,29.99,NNE,27,6.0,10.0,57,0.00,,---,0.00,VWS V14.01,2013-08-14 17:12:00,
2013-08-14 13:17:00,67.0,49.8,29.99,ENE,78,4.0,10.0,54,0.00,,---,0.00,VWS V14.01,2013-08-14 17:17:00,
2013-08-14 13:23:00,67.5,49.8,29.99,North,356,4.0,10.0,53,0.00,,---,0.00,VWS V14.01,2013-08-14 17:23:00,
2013-08-14 13:28:00,67.1,49.4,29.99,West,269,0.0,10.0,53,0.00,,---,0.00,VWS V14.01,2013-08-14 17:28:00,
2013-08-14 13:30:00,67.9,49.7,29.98,NW,323,4.0,14.0,52,0.00,,---,0.00,VWS V14.01,2013-08-14 17:30:00,
2013-08-14 13:33:00,67.1,50.4,29.99,East,86,5.0,8.0,55,0.00,,---,0.00,VWS V14.01,2013-08-14 17:33:00,
2013-08-14 13:38:00,67.2,51.0,29.99,NE,38,3.0,9.0,56,0.00,,---,0.00,VWS V14.01,2013-08-14 17:38:00,
2013-08-14 13:43:00,67.4,49.2,29.99,NE,45,1.0,10.0,52,0.00,,---,0.00,VWS V14.01,2013-08-14 17:43:00,
2013-08-14 13:48:00,67.7,50.0,29.99,NNE,28,1.0,10.0,53,0.00,,---,0.00,VWS V14.01,2013-08-14 17:48:00,
2013-08-14 13:53:00,68.2,49.9,29.99,NNE,27,6.0,10.0,52,0.00,,---,0.00,VWS V14.01,2013-08-14 17:53:00,
2013-08-14 13:58:00,67.9,49.7,29.99,SSW,210,0.0,12.0,52,0.00,,---,0.00,VWS V14.01,2013-08-14 17:58:00,
2013-08-14 14:00:00,68.5,50.7,29.98,NE,56,5.0,10.0,53,0.00,,---,0.00,VWS V14.01,2013-08-14 18:00:00,
2013-08-14 14:03:00,67.9,49.7,29.99,SW,236,3.0,11.0,52,0.00,,---,0.00,VWS V14.01,2013-08-14 18:03:00,
2013-08-14 14:08:00,67.9,49.7,29.99,NW,309,2.0,11.0,52,0.00,,---,0.00,VWS V14.01,2013-08-14 18:08:00,
2013-08-14 14:13:00,68.5,51.2,29.99,South,175,4.0,11.0,54,0.00,,---,0.00,VWS V14.01,2013-08-14 18:13:00,
2013-08-14 14:18:00,68.8,50.5,29.99,NNE,24,2.0,11.0,52,0.00,,---,0.00,VWS V14.01,2013-08-14 18:18:00,
2013-08-14 14:24:00,69.2,50.8,29.99,ENE,57,3.0,11.0,52,0.00,,---,0.00,VWS V14.01,2013-08-14 18:24:00,
2013-08-14 14:30:00,69.0,50.7,29.99,North,2,2.0,2.0,52,0.00,,---,0.00,VWS V14.01,2013-08-14 18:30:00,
2013-08-14 14:35:00,69.3,52.0,29.99,South,174,0.0,6.0,54,0.00,,---,0.00,VWS V14.01,2013-08-14 18:35:00,
2013-08-14 14:40:00,69.7,50.2,29.99,ESE,123,1.0,12.0,50,0.00,,---,0.00,VWS V14.01,2013-08-14 18:40:00,
2013-08-14 14:45:00,70.2,51.8,29.99,NE,35,1.0,12.0,52,0.00,,---,0.00,VWS V14.01,2013-08-14 18:45:00,
2013-08-14 14:51:00,70.1,50.6,29.99,NNW,345,1.0,12.0,50,0.00,,---,0.00,VWS V14.01,2013-08-14 18:51:00,
2013-08-14 14:56:00,69.3,49.9,29.99,West,266,0.0,12.0,50,0.00,,---,0.00,VWS V14.01,2013-08-14 18:56:00,
2013-08-14 15:00:00,67.9,49.7,29.99,ENE,58,7.0,12.0,52,0.00,,---,0.00,VWS V14.01,2013-08-14 19:00:00,
2013-08-14 15:01:00,69.0,50.7,29.99,NNE,29,0.0,2.0,52,0.00,,---,0.00,VWS V14.01,2013-08-14 19:01:00,
2013-08-14 15:06:00,69.0,50.7,29.99,North,354,5.0,7.0,52,0.00,,---,0.00,VWS V14.01,2013-08-14 19:06:00,
2013-08-14 15:12:00,69.9,51.0,29.99,NW,316,4.0,14.0,51,0.00,,---,0.00,VWS V14.01,2013-08-14 19:12:00,
2013-08-14 15:17:00,70.4,50.9,29.98,West,266,2.0,14.0,50,0.00,,---,0.00,VWS V14.01,2013-08-14 19:17:00,
2013-08-14 15:22:00,71.2,52.2,29.99,NNE,23,3.0,14.0,51,0.00,,---,0.00,VWS V14.01,2013-08-14 19:22:00,
2013-08-14 15:28:00,71.0,49.8,29.99,NNW,330,4.0,14.0,47,0.00,,---,0.00,VWS V14.01,2013-08-14 19:28:00,
2013-08-14 15:30:00,69.0,50.7,29.99,NNW,327,1.0,11.0,52,0.00,,---,0.00,VWS V14.01,2013-08-14 19:30:00,
2013-08-14 15:33:00,70.3,49.1,29.98,NNW,332,0.0,5.0,47,0.00,,---,0.00,VWS V14.01,2013-08-14 19:33:00,
2013-08-14 15:38:00,69.9,49.3,29.99,NNW,339,2.0,8.0,48,0.00,,---,0.00,VWS V14.01,2013-08-14 19:38:00,
2013-08-14 15:43:00,70.0,51.1,29.99,West,276,1.0,8.0,51,0.00,,---,0.00,VWS V14.01,2013-08-14 19:43:00,
2013-08-14 15:48:00,70.1,49.5,29.99,West,278,1.0,8.0,48,0.00,,---,0.00,VWS V14.01,2013-08-14 19:48:00,
2013-08-14 15:53:00,70.6,50.5,29.99,ENE,67,7.0,8.0,49,0.00,,---,0.00,VWS V14.01,2013-08-14 19:53:00,
2013-08-14 15:58:00,71.2,49.4,29.99,NE,46,5.0,10.0,46,0.00,,---,0.00,VWS V14.01,2013-08-14 19:58:00,
2013-08-14 16:00:00,69.0,51.2,29.99,North,359,3.0,12.0,53,0.00,,---,0.00,VWS V14.01,2013-08-14 20:00:00,
2013-08-14 16:03:00,70.8,49.0,29.99,NE,43,1.0,7.0,46,0.00,,---,0.00,VWS V14.01,2013-08-14 20:03:00,
2013-08-14 16:08:00,70.2,50.2,29.99,NNW,327,0.0,9.0,49,0.00,,---,0.00,VWS V14.01,2013-08-14 20:08:00,
2013-08-14 16:13:00,69.9,49.3,29.99,NNE,21,2.0,9.0,48,0.00,,---,0.00,VWS V14.01,2013-08-14 20:13:00,
2013-08-14 16:18:00,69.8,50.3,29.99,ENE,67,2.0,9.0,50,0.00,,---,0.00,VWS V14.01,2013-08-14 20:18:00,
2013-08-14 16:24:00,70.0,50.5,29.99,North,6,3.0,9.0,50,0.00,,---,0.00,VWS V14.01,2013-08-14 20:24:00,
2013-08-14 16:29:00,69.9,50.4,29.99,WSW,238,0.0,9.0,50,0.00,,---,0.00,VWS V14.01,2013-08-14 20:29:00,
2013-08-14 16:30:00,70.7,48.9,29.98,NW,311,1.0,14.0,46,0.00,,---,0.00,VWS V14.01,2013-08-14 20:30:00,
2013-08-14 16:35:00,69.7,50.8,29.99,ENE,72,2.0,8.0,51,0.00,,---,0.00,VWS V14.01,2013-08-14 20:35:00,
2013-08-14 16:40:00,70.5,51.0,29.99,ENE,65,4.0,8.0,50,0.00,,---,0.00,VWS V14.01,2013-08-14 20:40:00,
2013-08-14 16:45:00,70.9,50.2,29.99,NNW,345,0.0,8.0,48,0.00,,---,0.00,VWS V14.01,2013-08-14 20:45:00,
2013-08-14 16:50:00,71.6,50.9,29.99,NW,311,1.0,8.0,48,0.00,,---,0.00,VWS V14.01,2013-08-14 20:50:00,
2013-08-14 16:55:00,72.4,52.2,29.99,WSW,248,1.0,8.0,49,0.00,,---,0.00,VWS V14.01,2013-08-14 20:55:00,
2013-08-14 17:00:00,71.2,49.4,29.99,ENE,78,2.0,10.0,46,0.00,,---,0.00,VWS V14.01,2013-08-14 21:00:00,
2013-08-14 17:01:00,73.3,51.9,29.99,SW,224,0.0,3.0,47,0.00,,---,0.00,VWS V14.01,2013-08-14 21:01:00,
2013-08-14 17:06:00,73.5,51.5,29.99,NNW,340,3.0,6.0,46,0.00,,---,0.00,VWS V14.01,2013-08-14 21:06:00,
2013-08-14 17:11:00,73.1,52.3,29.99,NNW,342,0.0,6.0,48,0.00,,---,0.00,VWS V14.01,2013-08-14 21:11:00,
2013-08-14 17:16:00,72.6,51.2,29.99,ENE,72,1.0,9.0,47,0.00,,---,0.00,VWS V14.01,2013-08-14 21:16:00,
2013-08-14 17:21:00,71.7,50.4,29.99,NNW,337,1.0,9.0,47,0.00,,---,0.00,VWS V14.01,2013-08-14 21:21:00,
2013-08-14 17:26:00,71.6,50.9,30.00,NNE,14,4.0,9.0,48,0.00,,---,0.00,VWS V14.01,2013-08-14 21:26:00,
2013-08-14 17:30:00,69.9,51.0,29.99,North,1,1.0,9.0,51,0.00,,---,0.00,VWS V14.01,2013-08-14 21:30:00,
2013-08-14 17:31:00,71.9,51.2,29.99,NW,324,2.0,8.0,48,0.00,,---,0.00,VWS V14.01,2013-08-14 21:31:00,
2013-08-14 17:36:00,72.2,50.3,30.00,ENE,65,3.0,8.0,46,0.00,,---,0.00,VWS V14.01,2013-08-14 21:36:00,
2013-08-14 17:41:00,72.2,50.9,30.00,NNW,342,6.0,8.0,47,0.00,,---,0.00,VWS V14.01,2013-08-14 21:41:00,
2013-08-14 17:46:00,72.2,50.3,30.00,NNW,332,5.0,10.0,46,0.00,,---,0.00,VWS V14.01,2013-08-14 21:46:00,
2013-08-14 17:51:00,72.7,49.5,30.00,NW,326,0.0,10.0,44,0.00,,---,0.00,VWS V14.01,2013-08-14 21:51:00,
2013-08-14 17:56:00,73.0,50.4,30.00,NNW,344,1.0,10.0,45,0.00,,---,0.00,VWS V14.01,2013-08-14 21:56:00,
2013-08-14 18:00:00,73.2,51.2,29.99,SW,223,3.0,8.0,46,0.00,,---,0.00,VWS V14.01,2013-08-14 22:00:00,
2013-08-14 18:01:00,72.5,48.8,30.00,NNW,342,0.0,3.0,43,0.00,,---,0.00,VWS V14.01,2013-08-14 22:01:00,
2013-08-14 18:06:00,71.6,50.3,30.00,East,82,0.0,3.0,47,0.00,,---,0.00,VWS V14.01,2013-08-14 22:06:00,
2013-08-14 18:11:00,71.0,50.3,30.00,WNW,292,1.0,3.0,48,0.00,,---,0.00,VWS V14.01,2013-08-14 22:11:00,
2013-08-14 18:16:00,70.5,49.9,30.00,NE,48,3.0,5.0,48,0.00,,---,0.00,VWS V14.01,2013-08-14 22:16:00,
2013-08-14 18:21:00,70.1,50.6,30.00,ENE,57,0.0,5.0,50,0.00,,---,0.00,VWS V14.01,2013-08-14 22:21:00,
2013-08-14 18:26:00,70.1,50.6,30.00,North,11,0.0,5.0,50,0.00,,---,0.00,VWS V14.01,2013-08-14 22:26:00,
2013-08-14 18:30:00,71.7,51.0,29.99,NNW,331,1.0,9.0,48,0.00,,---,0.00,VWS V14.01,2013-08-14 22:30:00,
2013-08-14 18:32:00,70.1,50.1,30.00,NW,319,0.0,3.0,49,0.00,,---,0.00,VWS V14.01,2013-08-14 22:32:00,
2013-08-14 18:37:00,69.9,51.0,30.00,NNW,328,0.0,3.0,51,0.00,,---,0.00,VWS V14.01,2013-08-14 22:37:00,
2013-08-14 18:42:00,69.6,51.2,30.01,NW,324,0.0,3.0,52,0.00,,---,0.00,VWS V14.01,2013-08-14 22:42:00,
2013-08-14 18:47:00,69.2,50.3,30.01,North,2,0.0,3.0,51,0.00,,---,0.00,VWS V14.01,2013-08-14 22:47:00,
2013-08-14 18:52:00,68.6,50.3,30.01,NW,316,0.0,3.0,52,0.00,,---,0.00,VWS V14.01,2013-08-14 22:52:00,
2013-08-14 18:57:00,68.1,49.8,30.01,NNW,328,1.0,5.0,52,0.00,,---,0.00,VWS V14.01,2013-08-14 22:57:00,
2013-08-14 19:00:00,72.9,49.7,30.00,ENE,69,2.0,10.0,44,0.00,,---,0.00,VWS V14.01,2013-08-14 23:00:00,
2013-08-14 19:03:00,67.5,50.3,30.00,NNE,25,0.0,1.0,54,0.00,,---,0.00,VWS V14.01,2013-08-14 23:03:00,
2013-08-14 19:08:00,67.1,49.4,30.01,WNW,294,1.0,6.0,53,0.00,,---,0.00,VWS V14.01,2013-08-14 23:08:00,
2013-08-14 19:13:00,67.0,49.8,30.01,North,352,0.0,6.0,54,0.00,,---,0.00,VWS V14.01,2013-08-14 23:13:00,
2013-08-14 19:18:00,66.7,50.5,30.01,North,352,0.0,6.0,56,0.00,,---,0.00,VWS V14.01,2013-08-14 23:18:00,
2013-08-14 19:23:00,66.5,49.8,30.01,SSW,210,0.0,6.0,55,0.00,,---,0.00,VWS V14.01,2013-08-14 23:23:00,
2013-08-14 19:28:00,66.5,49.4,30.01,West,278,3.0,6.0,54,0.00,,---,0.00,VWS V14.01,2013-08-14 23:28:00,
2013-08-14 19:30:00,70.2,50.7,30.00,NW,306,1.0,5.0,50,0.00,,---,0.00,VWS V14.01,2013-08-14 23:30:00,
2013-08-14 19:33:00,66.3,49.2,30.01,WNW,288,0.0,1.0,54,0.00,,---,0.00,VWS V14.01,2013-08-14 23:33:00,
2013-08-14 19:38:00,66.1,49.5,30.01,NNW,345,1.0,1.0,55,0.00,,---,0.00,VWS V14.01,2013-08-14 23:38:00,
2013-08-14 19:43:00,66.0,49.9,30.02,North,355,0.0,3.0,56,0.00,,---,0.00,VWS V14.01,2013-08-14 23:43:00,
2013-08-14 19:48:00,65.6,49.5,30.02,NNW,330,0.0,3.0,56,0.00,,---,0.00,VWS V14.01,2013-08-14 23:48:00,
2013-08-14 19:53:00,65.3,49.2,30.02,NNW,336,0.0,3.0,56,0.00,,---,0.00,VWS V14.01,2013-08-14 23:53:00,
2013-08-14 19:58:00,65.0,49.4,30.02,NNW,342,0.0,3.0,57,0.00,,---,0.00,VWS V14.01,2013-08-14 23:58:00,
2013-08-14 20:00:00,67.7,49.5,30.01,NNW,334,0.0,5.0,52,0.00,,---,0.00,VWS V14.01,2013-08-15 00:00:00,
2013-08-14 20:03:00,64.7,49.1,30.03,NW,321,0.0,1.0,57,0.00,,---,0.00,VWS V14.01,2013-08-15 00:03:00,
2013-08-14 20:08:00,64.3,49.7,30.03,NW,315,0.0,1.0,59,0.00,,---,0.00,VWS V14.01,2013-08-15 00:08:00,
2013-08-14 20:13:00,64.0,49.8,30.03,NNW,335,0.0,1.0,60,0.00,,---,0.00,VWS V14.01,2013-08-15 00:13:00,
2013-08-14 20:18:00,63.7,49.1,30.03,NW,314,1.0,3.0,59,0.00,,---,0.00,VWS V14.01,2013-08-15 00:18:00,
2013-08-14 20:23:00,63.4,49.3,30.04,NNW,338,0.0,3.0,60,0.00,,---,0.00,VWS V14.01,2013-08-15 00:23:00,
2013-08-14 20:28:00,63.1,49.9,30.04,NNW,341,0.0,3.0,62,0.00,,---,0.00,VWS V14.01,2013-08-15 00:28:00,
2013-08-14 20:30:00,66.4,49.3,30.01,NNW,338,0.0,6.0,54,0.00,,---,0.00,VWS V14.01,2013-08-15 00:30:00,
2013-08-14 20:33:00,62.7,49.1,30.04,NW,320,0.0,2.0,61,0.00,,---,0.00,VWS V14.01,2013-08-15 00:33:00,
2013-08-14 20:38:00,62.6,49.0,30.05,NW,323,0.0,2.0,61,0.00,,---,0.00,VWS V14.01,2013-08-15 00:38:00,
2013-08-14 20:43:00,62.3,49.1,30.05,NNW,347,0.0,2.0,62,0.00,,---,0.00,VWS V14.01,2013-08-15 00:43:00,
2013-08-14 20:48:00,62.0,48.8,30.05,NNE,25,0.0,3.0,62,0.00,,---,0.00,VWS V14.01,2013-08-15 00:48:00,
2013-08-14 20:53:00,61.6,48.9,30.05,NNE,25,0.0,3.0,63,0.00,,---,0.00,VWS V14.01,2013-08-15 00:53:00,
2013-08-14 20:58:00,61.0,49.2,30.06,NNE,25,0.0,3.0,65,0.00,,---,0.00,VWS V14.01,2013-08-15 00:58:00,
2013-08-14 21:00:00,64.9,49.3,30.02,NNE,15,0.0,3.0,57,0.00,,---,0.00,VWS V14.01,2013-08-15 01:00:00,
2013-08-14 21:03:00,60.4,49.0,30.06,NNE,25,0.0,0.0,66,0.00,,---,0.00,VWS V14.01,2013-08-15 01:03:00,
2013-08-14 21:08:00,59.9,48.9,30.07,NNE,25,0.0,0.0,67,0.00,,---,0.00,VWS V14.01,2013-08-15 01:08:00,
2013-08-14 21:13:00,59.5,48.9,30.07,NNE,25,0.0,0.0,68,0.00,,---,0.00,VWS V14.01,2013-08-15 01:13:00,
2013-08-14 21:18:00,59.3,49.1,30.07,NNE,25,0.0,1.0,69,0.00,,---,0.00,VWS V14.01,2013-08-15 01:18:00,
2013-08-14 21:23:00,59.1,49.3,30.07,NNE,25,0.0,1.0,70,0.00,,---,0.00,VWS V14.01,2013-08-15 01:23:00,
2013-08-14 21:28:00,58.8,49.0,30.08,NNE,25,0.0,1.0,70,0.00,,---,0.00,VWS V14.01,2013-08-15 01:28:00,
2013-08-14 21:30:00,63.0,49.8,30.04,North,349,0.0,3.0,62,0.00,,---,0.00,VWS V14.01,2013-08-15 01:30:00,
2013-08-14 21:33:00,58.7,48.6,30.08,NNE,25,0.0,0.0,69,0.00,,---,0.00,VWS V14.01,2013-08-15 01:33:00,
2013-08-14 21:38:00,59.1,48.6,30.08,WNW,300,0.0,6.0,68,0.00,,---,0.00,VWS V14.01,2013-08-15 01:38:00,
2013-08-14 21:43:00,59.2,48.3,30.08,NNW,340,1.0,6.0,67,0.00,,---,0.00,VWS V14.01,2013-08-15 01:43:00,
2013-08-14 21:48:00,59.2,48.3,30.08,NW,307,0.0,6.0,67,0.00,,---,0.00,VWS V14.01,2013-08-15 01:48:00,
2013-08-14 21:53:00,59.1,48.2,30.08,North,352,1.0,6.0,67,0.00,,---,0.00,VWS V14.01,2013-08-15 01:53:00,
2013-08-14 21:58:00,59.0,48.5,30.09,NNW,332,0.0,6.0,68,0.00,,---,0.00,VWS V14.01,2013-08-15 01:58:00,
2013-08-14 22:00:00,60.8,49.0,30.06,NNE,25,0.0,3.0,65,0.00,,---,0.00,VWS V14.01,2013-08-15 02:00:00,
2013-08-14 22:03:00,58.7,48.6,30.08,NNW,330,0.0,1.0,69,0.00,,---,0.00,VWS V14.01,2013-08-15 02:03:00,
2013-08-14 22:08:00,58.4,48.7,30.08,NNW,338,0.0,1.0,70,0.00,,---,0.00,VWS V14.01,2013-08-15 02:08:00,
2013-08-14 22:13:00,58.3,48.6,30.08,WNW,293,0.0,2.0,70,0.00,,---,0.00,VWS V14.01,2013-08-15 02:13:00,
2013-08-14 22:18:00,58.0,48.7,30.08,WNW,295,0.0,2.0,71,0.00,,---,0.00,VWS V14.01,2013-08-15 02:18:00,
2013-08-14 22:23:00,57.6,48.3,30.09,WNW,295,0.0,2.0,71,0.00,,---,0.00,VWS V14.01,2013-08-15 02:23:00,
2013-08-14 22:28:00,57.4,47.7,30.09,WNW,297,0.0,2.0,70,0.00,,---,0.00,VWS V14.01,2013-08-15 02:28:00,
2013-08-14 22:30:00,58.7,49.0,30.08,NNE,25,0.0,1.0,70,0.00,,---,0.00,VWS V14.01,2013-08-15 02:30:00,
2013-08-14 22:33:00,57.5,47.8,30.09,NNE,19,0.0,2.0,70,0.00,,---,0.00,VWS V14.01,2013-08-15 02:33:00,
2013-08-14 22:38:00,57.4,47.3,30.09,NNE,19,0.0,2.0,69,0.00,,---,0.00,VWS V14.01,2013-08-15 02:38:00,
2013-08-14 22:43:00,57.0,47.3,30.09,NNE,19,0.0,2.0,70,0.00,,---,0.00,VWS V14.01,2013-08-15 02:43:00,
2013-08-14 22:48:00,56.7,47.4,30.09,NNE,19,0.0,2.0,71,0.00,,---,0.00,VWS V14.01,2013-08-15 02:48:00,
2013-08-14 22:53:00,56.4,47.5,30.09,NNE,19,0.0,2.0,72,0.00,,---,0.00,VWS V14.01,2013-08-15 02:53:00,
2013-08-14 22:58:00,56.2,47.3,30.09,North,11,0.0,2.0,72,0.00,,---,0.00,VWS V14.01,2013-08-15 02:58:00,
2013-08-14 23:00:00,59.0,48.5,30.09,NNW,334,0.0,6.0,68,0.00,,---,0.00,VWS V14.01,2013-08-15 03:00:00,
2013-08-14 23:03:00,56.0,47.5,30.09,North,1,0.0,1.0,73,0.00,,---,0.00,VWS V14.01,2013-08-15 03:03:00,
2013-08-14 23:08:00,55.8,47.7,30.09,North,349,0.0,1.0,74,0.00,,---,0.00,VWS V14.01,2013-08-15 03:08:00,
2013-08-14 23:13:00,55.5,47.7,30.09,WNW,287,0.0,1.0,75,0.00,,---,0.00,VWS V14.01,2013-08-15 03:13:00,
2013-08-14 23:18:00,55.1,47.7,30.09,WNW,288,0.0,1.0,76,0.00,,---,0.00,VWS V14.01,2013-08-15 03:18:00,
2013-08-14 23:23:00,54.8,47.7,30.09,West,276,0.0,1.0,77,0.00,,---,0.00,VWS V14.01,2013-08-15 03:23:00,
2013-08-14 23:28:00,54.5,47.5,30.09,West,276,0.0,1.0,77,0.00,,---,0.00,VWS V14.01,2013-08-15 03:28:00,
2013-08-14 23:30:00,57.4,47.7,30.09,WNW,297,0.0,2.0,70,0.00,,---,0.00,VWS V14.01,2013-08-15 03:30:00,
2013-08-14 23:33:00,54.5,47.5,30.09,SW,219,0.0,1.0,77,0.00,,---,0.00,VWS V14.01,2013-08-15 03:33:00,
2013-08-14 23:38:00,54.7,47.3,30.10,SW,226,0.0,1.0,76,0.00,,---,0.00,VWS V14.01,2013-08-15 03:38:00,
2013-08-14 23:43:00,54.8,47.0,30.10,SW,214,0.0,1.0,75,0.00,,---,0.00,VWS V14.01,2013-08-15 03:43:00,
2013-08-14 23:48:00,54.7,47.3,30.10,SW,217,0.0,1.0,76,0.00,,---,0.00,VWS V14.01,2013-08-15 03:48:00,
2013-08-14 23:53:00,54.7,46.9,30.10,SW,214,0.0,1.0,75,0.00,,---,0.00,VWS V14.01,2013-08-15 03:53:00,
2013-08-14 23:58:00,54.7,46.9,30.10,SSW,208,0.0,1.0,75,0.00,,---,0.00,VWS V14.01,2013-08-15 03:58:00,